createdAt,value
2023-01-13T00:02:54.751Z,0.2
2023-01-13T00:07:54.793Z,0.2
2023-01-13T00:12:54.753Z,0.2
2023-01-13T00:17:54.997Z,0.2
2023-01-13T00:22:55.266Z,0.2
2023-01-13T00:27:54.798Z,0.2
2023-01-13T00:32:56.231Z,0.2
2023-01-13T00:37:54.770Z,0.2
2023-01-13T00:42:56.313Z,0.2
2023-01-13T00:47:54.803Z,0.2
2023-01-13T00:52:56.916Z,0.2
2023-01-13T00:57:54.819Z,0.2
2023-01-13T01:02:54.853Z,0.2
2023-01-13T01:07:54.805Z,0.2
2023-01-13T01:12:54.884Z,0.2
2023-01-13T01:17:55.687Z,0.2
2023-01-13T01:22:56.469Z,0.2
2023-01-13T01:27:54.812Z,0.2
2023-01-13T01:32:54.773Z,0.1
2023-01-13T01:37:54.851Z,0.2
2023-01-13T01:42:54.771Z,0.1
2023-01-13T01:47:54.805Z,0.2
2023-01-13T01:52:54.857Z,0.2
2023-01-13T01:57:55.257Z,0.2
2023-01-13T02:02:54.782Z,0.1
2023-01-13T02:07:54.840Z,0.1
2023-01-13T02:12:54.791Z,0.2
2023-01-13T02:17:54.784Z,0.2
2023-01-13T02:22:54.790Z,0.2
2023-01-13T02:27:54.821Z,0.2
2023-01-13T02:32:54.835Z,0.1
2023-01-13T02:37:55.297Z,0.1
2023-01-13T02:42:54.784Z,0.3
2023-01-13T02:47:54.801Z,0.2
2023-01-13T02:52:58.053Z,0.1
2023-01-13T02:57:54.792Z,0.2
2023-01-13T03:02:54.949Z,0.1
2023-01-13T03:07:54.880Z,0.2
2023-01-13T03:12:54.849Z,0.2
2023-01-13T03:17:54.845Z,0.1
2023-01-13T03:22:54.831Z,0.2
2023-01-13T03:27:54.842Z,0.2
2023-01-13T03:32:54.855Z,0.2
2023-01-13T03:37:54.838Z,0.2
2023-01-13T03:42:54.835Z,0.1
2023-01-13T03:47:54.871Z,0.2
2023-01-13T03:52:57.746Z,0.2
2023-01-13T03:57:54.915Z,0.2
2023-01-13T04:02:54.910Z,0.2
2023-01-13T04:07:54.864Z,0.2
2023-01-13T04:12:54.945Z,0.1
2023-01-13T04:17:54.846Z,0.2
2023-01-13T04:22:54.863Z,0.2
2023-01-13T04:27:54.999Z,0.2
2023-01-13T04:32:54.857Z,0.2
2023-01-13T04:37:54.919Z,0.2
2023-01-13T04:42:54.844Z,0.2
2023-01-13T04:47:55.127Z,0.2
2023-01-13T04:52:56.711Z,0.3
2023-01-13T04:57:55.970Z,0.2
2023-01-13T05:02:54.895Z,0.2
2023-01-13T05:07:55.019Z,0.2
2023-01-13T05:12:56.171Z,0.2
2023-01-13T05:17:56.096Z,0.1
2023-01-13T05:22:55.480Z,0.2
2023-01-13T05:27:54.867Z,0.2
2023-01-13T05:32:55.122Z,0.2
2023-01-13T05:37:54.936Z,0.3
2023-01-13T05:42:55.384Z,0.3
2023-01-13T05:47:54.873Z,0.2
2023-01-13T05:52:55.941Z,0.2
2023-01-13T05:57:54.948Z,0.2
2023-01-13T06:02:54.870Z,0.2
2023-01-13T06:07:54.945Z,0.1
2023-01-13T06:12:54.888Z,0.2
2023-01-13T06:17:54.868Z,0.2
2023-01-13T06:22:54.967Z,0.2
2023-01-13T06:27:54.875Z,0.2
2023-01-13T06:32:54.903Z,0.2
2023-01-13T06:37:54.909Z,0.2
2023-01-13T06:42:54.881Z,0.2
2023-01-13T06:47:54.892Z,0.2
2023-01-13T06:53:01.105Z,0.2
2023-01-13T06:57:54.923Z,0.2
2023-01-13T07:02:55.440Z,0.3
2023-01-13T07:07:54.921Z,0.2
2023-01-13T07:12:54.900Z,0.3
2023-01-13T07:17:54.892Z,0.2
2023-01-13T07:22:54.928Z,0.2
2023-01-13T07:27:56.095Z,0.3
2023-01-13T07:32:54.917Z,0.4
2023-01-13T07:37:54.892Z,0.3
2023-01-13T07:42:54.904Z,0.4
2023-01-13T07:47:54.974Z,0.4
2023-01-13T07:52:55.396Z,0.5
2023-01-13T07:57:54.951Z,0.6
2023-01-13T08:02:55.006Z,0.8
2023-01-13T08:07:54.968Z,0.9
2023-01-13T08:12:57.932Z,0.6
2023-01-13T08:17:54.947Z,0.8
2023-01-13T08:22:54.926Z,0.8
2023-01-13T08:27:55.092Z,0.6
2023-01-13T08:32:54.970Z,0.9
2023-01-13T08:37:54.962Z,0.13
2023-01-13T08:42:54.990Z,0.17
2023-01-13T08:47:55.039Z,0.29
2023-01-13T08:52:55.711Z,0.46
2023-01-13T08:58:10.215Z,0.18
2023-01-13T09:02:54.987Z,0.12
2023-01-13T09:07:55.002Z,0.12
2023-01-13T09:12:55.486Z,0.15
2023-01-13T09:17:55.476Z,0.15
2023-01-13T09:22:54.923Z,0.19
2023-01-13T09:27:54.945Z,0.39
2023-01-13T09:32:54.948Z,0.55
2023-01-13T09:37:58.838Z,0.23
2023-01-13T09:42:55.199Z,0.22
2023-01-13T09:47:54.988Z,0.16
2023-01-13T09:52:56.745Z,0.17
2023-01-13T09:57:54.957Z,0.15
2023-01-13T10:02:54.977Z,0.1
2023-01-13T10:07:54.923Z,0.11
2023-01-13T10:12:55.381Z,0.5
2023-01-13T10:17:54.995Z,0.3
2023-01-13T10:22:54.952Z,0.8
2023-01-13T10:27:55.121Z,0.6
2023-01-13T10:32:55.251Z,0.6
2023-01-13T10:37:55.067Z,0.5
2023-01-13T10:42:54.941Z,0.5
2023-01-13T10:47:55.067Z,0.5
2023-01-13T10:52:57.081Z,0.6
2023-01-13T10:57:55.088Z,0.8
2023-01-13T11:02:55.082Z,0.12
2023-01-13T11:07:55.068Z,0.13
2023-01-13T11:12:54.972Z,0.13
2023-01-13T11:17:56.321Z,0.16
2023-01-13T11:22:54.978Z,0.18
2023-01-13T11:27:54.980Z,0.13
2023-01-13T11:32:55.085Z,0.15
2023-01-13T11:37:55.028Z,0.18
2023-01-13T11:42:54.973Z,0.2
2023-01-13T11:47:54.967Z,0.23
2023-01-13T11:52:58.513Z,0.21
2023-01-13T11:57:55.042Z,0.17
2023-01-13T12:02:55.491Z,0.1
2023-01-13T12:07:55.093Z,0.17
2023-01-13T12:12:55.007Z,0.15
2023-01-13T12:17:55.042Z,0.16
2023-01-13T12:22:55.086Z,0.26
2023-01-13T12:27:55.014Z,0.31
2023-01-13T12:32:55.237Z,0.37
2023-01-13T12:37:54.962Z,0.32
2023-01-13T12:42:54.983Z,0.41
2023-01-13T12:47:54.992Z,0.27
2023-01-13T12:52:58.771Z,0.26
2023-01-13T12:57:55.008Z,0.15
2023-01-13T13:02:55.100Z,0.11
2023-01-13T13:07:55.088Z,0.8
2023-01-13T13:12:55.023Z,0.8
2023-01-13T13:17:55.015Z,0.11
2023-01-13T13:23:00.825Z,0.6
2023-01-13T13:27:56.104Z,0.7
2023-01-13T13:32:55.016Z,0.2
2023-01-13T13:37:55.613Z,0.16
2023-01-13T13:42:55.036Z,0.15
2023-01-13T13:47:54.994Z,0.11
2023-01-13T13:52:59.038Z,0.13
2023-01-13T13:57:55.017Z,0.11
2023-01-13T14:02:55.052Z,0.19
2023-01-13T14:12:54.970Z,0.1
2023-01-13T14:17:54.994Z,0.9
2023-01-13T14:22:54.987Z,0.9
2023-01-13T14:27:54.974Z,0.8
2023-01-13T14:32:54.943Z,0.8
2023-01-13T14:37:54.939Z,0.8
2023-01-13T14:42:54.930Z,0.9
2023-01-13T14:47:55.008Z,0.7
2023-01-13T14:53:00.924Z,0.8
2023-01-13T14:57:54.944Z,0.6
2023-01-13T15:02:54.977Z,0.9
2023-01-13T15:07:54.940Z,0.5
2023-01-13T15:12:54.947Z,0.8
2023-01-13T15:17:54.960Z,0.4
2023-01-13T15:22:54.975Z,0.4
2023-01-13T15:27:54.916Z,0.4
2023-01-13T15:32:55.232Z,0.4
2023-01-13T15:37:54.959Z,0.3
2023-01-13T15:42:54.978Z,0.3
2023-01-13T15:47:54.970Z,0.2
2023-01-13T15:53:14.451Z,0.2
2023-01-13T15:57:54.953Z,0.2
2023-01-13T16:02:54.971Z,0.1
2023-01-13T16:07:55.019Z,0.1
2023-01-13T16:12:54.961Z,0.3
2023-01-13T16:17:55.030Z,0.2
2023-01-13T16:22:54.951Z,0.2
2023-01-13T16:27:54.975Z,0.2
2023-01-13T16:32:55.020Z,0.2
2023-01-13T16:37:55.001Z,0.2
2023-01-13T16:42:55.008Z,0.2
2023-01-13T16:47:55.022Z,0.2
2023-01-13T16:52:55.220Z,0.2
2023-01-13T16:57:55.030Z,0.2
2023-01-13T17:02:55.022Z,0.2
2023-01-13T17:07:55.122Z,0.2
2023-01-13T17:12:56.033Z,0.2
2023-01-13T17:17:55.028Z,0.2
2023-01-13T17:22:59.063Z,0.2
2023-01-13T17:27:55.341Z,0.1
2023-01-13T17:32:55.053Z,0.2
2023-01-13T17:37:56.101Z,0.2
2023-01-13T17:42:55.056Z,0.2
2023-01-13T17:47:55.053Z,0.2
2023-01-13T17:53:00.283Z,0.2
2023-01-13T17:57:55.037Z,0.1
2023-01-13T18:02:55.112Z,0.2
2023-01-13T18:07:56.618Z,0.2
2023-01-13T18:12:55.057Z,0.2
2023-01-13T18:17:55.040Z,0.2
2023-01-13T18:28:25.375Z,0.2
2023-01-13T18:32:55.095Z,0.3
2023-01-13T18:37:55.065Z,0.1
2023-01-13T18:42:59.775Z,0.1
2023-01-13T18:47:55.073Z,0.2
2023-01-13T18:52:55.151Z,0.1
2023-01-13T18:57:56.232Z,0.2
2023-01-13T19:07:55.078Z,0.2
2023-01-13T19:12:56.535Z,0.2
2023-01-13T19:17:55.078Z,0.2
2023-01-13T19:22:55.074Z,0.2
2023-01-13T19:27:57.488Z,0.2
2023-01-13T19:32:55.582Z,0.2
2023-01-13T19:37:55.088Z,0.2
2023-01-13T19:42:56.168Z,0.2
2023-01-13T19:47:55.093Z,0.1
2023-01-13T19:52:55.094Z,0.2
2023-01-13T19:57:55.556Z,0.1
2023-01-13T20:02:55.136Z,0.2
2023-01-13T20:07:55.120Z,0.2
2023-01-13T20:12:56.040Z,0.2
2023-01-13T20:17:55.140Z,0.2
2023-01-13T20:22:55.148Z,0.1
2023-01-13T20:27:58.487Z,0.2
2023-01-13T20:32:55.118Z,0.3
2023-01-13T20:37:55.074Z,0.1
2023-01-13T20:42:55.094Z,0.2
2023-01-13T20:47:55.067Z,0.2
2023-01-13T20:52:55.066Z,0.2
2023-01-13T20:57:55.106Z,0.2
2023-01-13T21:02:55.061Z,0.1
2023-01-13T21:07:55.050Z,0.1
2023-01-13T21:12:56.380Z,0.2
2023-01-13T21:17:55.083Z,0.2
2023-01-13T21:22:55.101Z,0.2
2023-01-13T21:27:57.510Z,0.2
2023-01-13T21:32:55.096Z,0.2
2023-01-13T21:37:55.607Z,0.1
2023-01-13T21:42:56.092Z,0.2
2023-01-13T21:47:55.090Z,0.3
2023-01-13T21:52:55.166Z,0.3
2023-01-13T21:57:55.160Z,0.1
2023-01-13T22:02:55.285Z,0.2
2023-01-13T22:07:55.111Z,0.2
2023-01-13T22:12:56.461Z,0.1
2023-01-13T22:17:55.241Z,0.1
2023-01-13T22:22:55.128Z,0.2
2023-01-13T22:27:55.797Z,0.2
2023-01-13T22:32:55.101Z,0.2
2023-01-13T22:37:55.268Z,0.2
2023-01-13T22:42:56.412Z,0.2
2023-01-13T22:47:56.194Z,0.2
2023-01-13T22:52:58.026Z,0.1
2023-01-13T22:57:55.292Z,0.2
2023-01-13T23:02:55.167Z,0.2
2023-01-13T23:07:55.125Z,0.2
2023-01-13T23:12:56.627Z,0.2
2023-01-13T23:17:55.134Z,0.1
2023-01-13T23:22:55.130Z,0.2
2023-01-13T23:27:57.814Z,0.2
2023-01-13T23:32:55.126Z,0.2
2023-01-13T23:37:55.124Z,0.2
2023-01-13T23:52:55.271Z,0.3
2023-01-13T23:57:55.168Z,0.2
